sensor_id;sensor_type;location;lat;lon;timestamp;pressure;altitude;pressure_sealevel;temperature;humidity
27294;BME280;14785;52.556;13.430;2024-03-25T00:01:19;12197.09;;;6.87;100.00
27294;BME280;14785;52.556;13.430;2024-03-25T00:03:44;11251.28;;;6.84;100.00
27294;BME280;14785;52.556;13.430;2024-03-25T00:06:09;12157.47;;;7.31;100.00
27294;BME280;14785;52.556;13.430;2024-03-25T00:08:35;10601.41;;;7.33;100.00
27294;BME280;14785;52.556;13.430;2024-03-25T00:11:01;8705.97;;;7.01;100.00
27294;BME280;14785;52.556;13.430;2024-03-25T00:13:27;7405.25;;;7.10;100.00
27294;BME280;14785;52.556;13.430;2024-03-25T00:15:52;5593.47;;;7.01;100.00
27294;BME280;14785;52.556;13.430;2024-03-25T00:18:18;5969.47;;;7.06;100.00
27294;BME280;14785;52.556;13.430;2024-03-25T00:20:43;6740.56;;;7.44;100.00
27294;BME280;14785;52.556;13.430;2024-03-25T00:23:09;4947.88;;;7.25;100.00
27294;BME280;14785;52.556;13.430;2024-03-25T00:25:34;3317.31;;;7.16;100.00
27294;BME280;14785;52.556;13.430;2024-03-25T00:28:00;1445.72;;;6.82;100.00
27294;BME280;14785;52.556;13.430;2024-03-25T00:30:25;2272.91;;;6.92;100.00
27294;BME280;14785;52.556;13.430;2024-03-25T00:32:50;2477.94;;;6.84;100.00
27294;BME280;14785;52.556;13.430;2024-03-25T00:35:16;2739.59;;;6.79;100.00
27294;BME280;14785;52.556;13.430;2024-03-25T00:37:43;3866.28;;;7.02;100.00
27294;BME280;14785;52.556;13.430;2024-03-25T00:40:08;2927.16;;;6.81;100.00
27294;BME280;14785;52.556;13.430;2024-03-25T00:42:34;2827.31;;;6.86;100.00
27294;BME280;14785;52.556;13.430;2024-03-25T00:44:59;4612.22;;;7.38;100.00
27294;BME280;14785;52.556;13.430;2024-03-25T00:47:25;2576.75;;;7.06;100.00
27294;BME280;14785;52.556;13.430;2024-03-25T00:49:51;911.72;;;6.78;100.00
27294;BME280;14785;52.556;13.430;2024-03-25T00:52:16;2542.91;;;6.98;100.00
27294;BME280;14785;52.556;13.430;2024-03-25T00:54:41;2387.06;;;7.14;100.00
27294;BME280;14785;52.556;13.430;2024-03-25T00:57:07;1078.78;;;6.86;100.00
27294;BME280;14785;52.556;13.430;2024-03-25T00:59:33;2808.97;;;7.23;100.00
27294;BME280;14785;52.556;13.430;2024-03-25T01:01:59;585.78;;;6.77;100.00
27294;BME280;14785;52.556;13.430;2024-03-25T01:04:24;1885.47;;;6.99;100.00
27294;BME280;14785;52.556;13.430;2024-03-25T01:06:49;2973.59;;;7.26;100.00
27294;BME280;14785;52.556;13.430;2024-03-25T01:09:15;1060.97;;;6.91;100.00
27294;BME280;14785;52.556;13.430;2024-03-25T01:11:41;2264.47;;;7.28;100.00
27294;BME280;14785;52.556;13.430;2024-03-25T01:14:06;1598.50;;;7.15;100.00
27294;BME280;14785;52.556;13.430;2024-03-25T01:16:32;170.25;;;6.88;100.00
27294;BME280;14785;52.556;13.430;2024-03-25T01:18:58;578.25;;;6.85;100.00
27294;BME280;14785;52.556;13.430;2024-03-25T01:21:24;1279.53;;;7.01;100.00
27294;BME280;14785;52.556;13.430;2024-03-25T01:23:50;2810.47;;;7.48;100.00
27294;BME280;14785;52.556;13.430;2024-03-25T01:26:15;438.03;;;7.29;100.00
27294;BME280;14785;52.556;13.430;2024-03-25T01:28:40;235.22;;;7.33;100.00
27294;BME280;14785;52.556;13.430;2024-03-25T01:31:08;-684.13;;;7.20;100.00
27294;BME280;14785;52.556;13.430;2024-03-25T01:33:34;378.50;;;7.07;100.00
27294;BME280;14785;52.556;13.430;2024-03-25T01:36:00;-47.94;;;6.82;100.00
27294;BME280;14785;52.556;13.430;2024-03-25T01:38:26;2089.00;;;7.13;100.00
27294;BME280;14785;52.556;13.430;2024-03-25T01:40:51;1843.75;;;6.85;100.00
27294;BME280;14785;52.556;13.430;2024-03-25T01:43:17;3789.69;;;7.09;100.00
27294;BME280;14785;52.556;13.430;2024-03-25T01:45:43;3655.34;;;6.99;100.00
27294;BME280;14785;52.556;13.430;2024-03-25T01:48:10;4329.47;;;7.09;100.00
27294;BME280;14785;52.556;13.430;2024-03-25T01:50:44;4572.16;;;7.21;100.00
27294;BME280;14785;52.556;13.430;2024-03-25T01:53:12;3857.66;;;6.90;100.00
27294;BME280;14785;52.556;13.430;2024-03-25T01:55:38;6347.44;;;7.28;100.00
27294;BME280;14785;52.556;13.430;2024-03-25T01:58:06;6898.00;;;7.27;100.00
27294;BME280;14785;52.556;13.430;2024-03-25T02:00:32;7517.66;;;7.42;100.00
27294;BME280;14785;52.556;13.430;2024-03-25T02:03:00;5108.84;;;6.87;100.00
27294;BME280;14785;52.556;13.430;2024-03-25T02:05:25;4830.53;;;6.79;100.00
27294;BME280;14785;52.556;13.430;2024-03-25T02:07:52;5470.72;;;6.82;100.00
27294;BME280;14785;52.556;13.430;2024-03-25T02:10:17;6589.66;;;6.88;100.00
27294;BME280;14785;52.556;13.430;2024-03-25T02:12:45;5335.41;;;6.66;100.00
27294;BME280;14785;52.556;13.430;2024-03-25T02:15:12;5920.31;;;6.80;100.00
27294;BME280;14785;52.556;13.430;2024-03-25T02:17:39;5056.47;;;6.77;100.00
27294;BME280;14785;52.556;13.430;2024-03-25T02:20:07;3319.03;;;6.65;100.00
27294;BME280;14785;52.556;13.430;2024-03-25T02:22:35;1619.25;;;6.56;100.00
27294;BME280;14785;52.556;13.430;2024-03-25T02:25:09;1609.88;;;6.78;100.00
27294;BME280;14785;52.556;13.430;2024-03-25T02:27:36;351.84;;;6.56;100.00
27294;BME280;14785;52.556;13.430;2024-03-25T02:32:32;-935.53;;;6.34;100.00
27294;BME280;14785;52.556;13.430;2024-03-25T02:34:57;249.16;;;6.51;100.00
27294;BME280;14785;52.556;13.430;2024-03-25T02:37:25;59.03;;;6.27;100.00
27294;BME280;14785;52.556;13.430;2024-03-25T02:39:52;1973.00;;;6.48;100.00
27294;BME280;14785;52.556;13.430;2024-03-25T02:42:18;1674.50;;;6.27;100.00
27294;BME280;14785;52.556;13.430;2024-03-25T02:44:45;1986.78;;;6.13;100.00
27294;BME280;14785;52.556;13.430;2024-03-25T02:47:11;2710.22;;;6.15;100.00
27294;BME280;14785;52.556;13.430;2024-03-25T02:49:37;1788.47;;;5.92;100.00
27294;BME280;14785;52.556;13.430;2024-03-25T02:52:03;2550.78;;;6.08;100.00
27294;BME280;14785;52.556;13.430;2024-03-25T02:54:28;2595.97;;;5.90;100.00
27294;BME280;14785;52.556;13.430;2024-03-25T02:56:54;2581.69;;;6.10;100.00
27294;BME280;14785;52.556;13.430;2024-03-25T02:59:19;2951.59;;;6.19;100.00
27294;BME280;14785;52.556;13.430;2024-03-25T03:01:44;2672.63;;;6.31;100.00
27294;BME280;14785;52.556;13.430;2024-03-25T03:04:10;2634.25;;;6.33;100.00
27294;BME280;14785;52.556;13.430;2024-03-25T03:06:35;2845.66;;;6.49;100.00
27294;BME280;14785;52.556;13.430;2024-03-25T03:09:01;2064.13;;;6.21;100.00
27294;BME280;14785;52.556;13.430;2024-03-25T03:11:27;2296.06;;;6.42;100.00
27294;BME280;14785;52.556;13.430;2024-03-25T03:13:52;961.06;;;6.10;100.00
27294;BME280;14785;52.556;13.430;2024-03-25T03:16:18;627.97;;;6.17;100.00
27294;BME280;14785;52.556;13.430;2024-03-25T03:18:43;1022.63;;;6.12;100.00
27294;BME280;14785;52.556;13.430;2024-03-25T03:21:08;255.84;;;5.93;100.00
27294;BME280;14785;52.556;13.430;2024-03-25T03:23:34;643.50;;;6.23;100.00
27294;BME280;14785;52.556;13.430;2024-03-25T03:25:59;920.63;;;6.31;100.00
27294;BME280;14785;52.556;13.430;2024-03-25T03:28:25;456.28;;;6.20;100.00
27294;BME280;14785;52.556;13.430;2024-03-25T03:30:52;833.22;;;6.23;100.00
27294;BME280;14785;52.556;13.430;2024-03-25T03:33:17;325.81;;;6.35;100.00
27294;BME280;14785;52.556;13.430;2024-03-25T03:35:43;128.16;;;6.21;100.00
27294;BME280;14785;52.556;13.430;2024-03-25T03:38:08;-1312.13;;;6.14;100.00
27294;BME280;14785;52.556;13.430;2024-03-25T03:40:33;-709.94;;;6.53;100.00
27294;BME280;14785;52.556;13.430;2024-03-25T03:42:59;-1694.31;;;6.45;100.00
27294;BME280;14785;52.556;13.430;2024-03-25T03:45:25;-2855.13;;;6.44;100.00
27294;BME280;14785;52.556;13.430;2024-03-25T03:47:52;-3845.94;;;6.33;100.00
27294;BME280;14785;52.556;13.430;2024-03-25T03:50:18;-5024.81;;;6.49;100.00
27294;BME280;14785;52.556;13.430;2024-03-25T03:52:44;-5453.94;;;6.36;100.00
27294;BME280;14785;52.556;13.430;2024-03-25T03:55:10;-7229.44;;;6.31;100.00
27294;BME280;14785;52.556;13.430;2024-03-25T03:57:36;-6486.41;;;6.75;100.00
27294;BME280;14785;52.556;13.430;2024-03-25T04:00:02;-6500.84;;;6.65;100.00
27294;BME280;14785;52.556;13.430;2024-03-25T04:02:27;-6143.03;;;6.72;100.00
27294;BME280;14785;52.556;13.430;2024-03-25T04:04:53;-8438.94;;;6.29;100.00
27294;BME280;14785;52.556;13.430;2024-03-25T04:07:19;-9211.72;;;6.53;100.00
27294;BME280;14785;52.556;13.430;2024-03-25T04:09:44;-9281.50;;;6.39;100.00
27294;BME280;14785;52.556;13.430;2024-03-25T04:12:10;-9962.56;;;6.46;100.00
27294;BME280;14785;52.556;13.430;2024-03-25T04:14:36;-9805.50;;;6.56;100.00
27294;BME280;14785;52.556;13.430;2024-03-25T04:17:01;-10523.56;;;6.37;100.00
27294;BME280;14785;52.556;13.430;2024-03-25T04:19:26;-11196.00;;;6.39;100.00
27294;BME280;14785;52.556;13.430;2024-03-25T04:21:56;-11254.75;;;6.39;100.00
27294;BME280;14785;52.556;13.430;2024-03-25T04:24:21;-11718.63;;;6.18;100.00
27294;BME280;14785;52.556;13.430;2024-03-25T04:26:47;-11565.53;;;6.34;100.00
27294;BME280;14785;52.556;13.430;2024-03-25T04:29:14;-11339.44;;;6.56;100.00
27294;BME280;14785;52.556;13.430;2024-03-25T04:31:40;-11083.34;;;6.53;100.00
27294;BME280;14785;52.556;13.430;2024-03-25T04:34:05;-11297.69;;;6.51;100.00
27294;BME280;14785;52.556;13.430;2024-03-25T04:36:30;-10492.78;;;6.69;100.00
27294;BME280;14785;52.556;13.430;2024-03-25T04:38:56;-11424.00;;;6.43;100.00
27294;BME280;14785;52.556;13.430;2024-03-25T04:41:22;-10619.03;;;6.75;100.00
27294;BME280;14785;52.556;13.430;2024-03-25T04:43:49;-9940.34;;;6.86;100.00
27294;BME280;14785;52.556;13.430;2024-03-25T04:46:14;-10153.50;;;6.92;100.00
27294;BME280;14785;52.556;13.430;2024-03-25T04:48:40;-11352.22;;;6.56;100.00
27294;BME280;14785;52.556;13.430;2024-03-25T04:51:06;-10742.09;;;6.77;100.00
27294;BME280;14785;52.556;13.430;2024-03-25T04:53:32;-10962.38;;;6.64;100.00
27294;BME280;14785;52.556;13.430;2024-03-25T04:55:57;-11393.59;;;6.44;100.00
27294;BME280;14785;52.556;13.430;2024-03-25T04:58:23;-11477.03;;;6.54;100.00
27294;BME280;14785;52.556;13.430;2024-03-25T05:00:48;-12009.59;;;6.31;100.00
27294;BME280;14785;52.556;13.430;2024-03-25T05:03:14;-11409.47;;;6.47;100.00
27294;BME280;14785;52.556;13.430;2024-03-25T05:05:39;-11726.59;;;6.49;100.00
27294;BME280;14785;52.556;13.430;2024-03-25T05:08:05;-11165.41;;;6.70;100.00
27294;BME280;14785;52.556;13.430;2024-03-25T05:10:30;-10852.06;;;6.77;100.00
27294;BME280;14785;52.556;13.430;2024-03-25T05:12:56;-10903.13;;;6.77;100.00
27294;BME280;14785;52.556;13.430;2024-03-25T05:15:23;-11601.63;;;6.50;100.00
27294;BME280;14785;52.556;13.430;2024-03-25T05:17:51;-10897.56;;;7.05;100.00
27294;BME280;14785;52.556;13.430;2024-03-25T05:20:17;-10957.75;;;6.67;100.00
27294;BME280;14785;52.556;13.430;2024-03-25T05:22:42;-11406.84;;;6.62;100.00
27294;BME280;14785;52.556;13.430;2024-03-25T05:25:08;-10987.34;;;6.60;100.00
27294;BME280;14785;52.556;13.430;2024-03-25T05:27:33;-11418.31;;;6.39;100.00
27294;BME280;14785;52.556;13.430;2024-03-25T05:29:59;-11148.81;;;6.63;100.00
27294;BME280;14785;52.556;13.430;2024-03-25T05:32:24;-11128.66;;;6.80;100.00
27294;BME280;14785;52.556;13.430;2024-03-25T05:34:50;-11001.03;;;6.66;100.00
27294;BME280;14785;52.556;13.430;2024-03-25T05:37:15;-12057.75;;;6.43;100.00
27294;BME280;14785;52.556;13.430;2024-03-25T05:39:41;-10947.94;;;6.69;100.00
27294;BME280;14785;52.556;13.430;2024-03-25T05:42:06;-11368.75;;;6.78;100.00
27294;BME280;14785;52.556;13.430;2024-03-25T05:44:31;-11702.19;;;6.55;100.00
27294;BME280;14785;52.556;13.430;2024-03-25T05:46:58;-11584.50;;;6.69;100.00
27294;BME280;14785;52.556;13.430;2024-03-25T05:49:23;-12241.34;;;6.41;100.00
27294;BME280;14785;52.556;13.430;2024-03-25T05:51:49;-11722.87;;;6.57;100.00
27294;BME280;14785;52.556;13.430;2024-03-25T05:54:14;-11722.44;;;6.54;100.00
27294;BME280;14785;52.556;13.430;2024-03-25T05:56:40;-11898.63;;;6.39;100.00
27294;BME280;14785;52.556;13.430;2024-03-25T05:59:05;-11683.75;;;6.38;100.00
27294;BME280;14785;52.556;13.430;2024-03-25T06:01:31;-12156.91;;;6.27;100.00
27294;BME280;14785;52.556;13.430;2024-03-25T06:03:56;-12124.91;;;6.47;100.00
27294;BME280;14785;52.556;13.430;2024-03-25T06:06:21;-12211.03;;;6.43;100.00
27294;BME280;14785;52.556;13.430;2024-03-25T06:08:47;-12260.19;;;6.60;100.00
27294;BME280;14785;52.556;13.430;2024-03-25T06:11:12;-11529.66;;;6.77;100.00
27294;BME280;14785;52.556;13.430;2024-03-25T06:13:38;-12561.47;;;6.32;100.00
27294;BME280;14785;52.556;13.430;2024-03-25T06:16:03;-12763.69;;;6.74;100.00
27294;BME280;14785;52.556;13.430;2024-03-25T06:18:29;-12991.69;;;6.38;100.00
27294;BME280;14785;52.556;13.430;2024-03-25T06:20:54;-13582.31;;;6.42;100.00
27294;BME280;14785;52.556;13.430;2024-03-25T06:25:52;-13692.66;;;6.44;100.00
27294;BME280;14785;52.556;13.430;2024-03-25T06:28:19;-14658.22;;;6.46;100.00
27294;BME280;14785;52.556;13.430;2024-03-25T06:30:46;-14824.31;;;6.58;100.00
27294;BME280;14785;52.556;13.430;2024-03-25T06:33:30;-14908.25;;;6.46;100.00
27294;BME280;14785;52.556;13.430;2024-03-25T06:36:15;-15416.38;;;6.57;100.00
27294;BME280;14785;52.556;13.430;2024-03-25T06:38:40;-15326.66;;;6.45;100.00
27294;BME280;14785;52.556;13.430;2024-03-25T06:41:06;-15632.47;;;6.64;100.00
27294;BME280;14785;52.556;13.430;2024-03-25T06:43:31;-16097.84;;;6.47;100.00
27294;BME280;14785;52.556;13.430;2024-03-25T06:45:56;-15814.47;;;6.46;100.00
27294;BME280;14785;52.556;13.430;2024-03-25T06:48:24;-16506.50;;;6.48;100.00
27294;BME280;14785;52.556;13.430;2024-03-25T06:50:56;-17131.91;;;6.30;100.00
27294;BME280;14785;52.556;13.430;2024-03-25T06:53:21;-17258.84;;;6.47;100.00
27294;BME280;14785;52.556;13.430;2024-03-25T06:55:55;-17281.84;;;6.28;100.00
27294;BME280;14785;52.556;13.430;2024-03-25T06:58:22;-17315.69;;;6.98;100.00
27294;BME280;14785;52.556;13.430;2024-03-25T07:00:47;-16809.72;;;6.76;100.00
27294;BME280;14785;52.556;13.430;2024-03-25T07:03:18;-17461.84;;;6.53;100.00
27294;BME280;14785;52.556;13.430;2024-03-25T07:05:45;-17338.47;;;6.49;100.00
27294;BME280;14785;52.556;13.430;2024-03-25T07:08:11;-17414.03;;;6.46;100.00
27294;BME280;14785;52.556;13.430;2024-03-25T07:10:36;-18237.81;;;6.55;100.00
27294;BME280;14785;52.556;13.430;2024-03-25T07:13:02;-18612.94;;;6.47;100.00
27294;BME280;14785;52.556;13.430;2024-03-25T07:15:27;-19241.63;;;6.52;100.00
27294;BME280;14785;52.556;13.430;2024-03-25T07:17:52;-19319.00;;;6.80;100.00
27294;BME280;14785;52.556;13.430;2024-03-25T07:20:18;-19207.28;;;6.56;100.00
27294;BME280;14785;52.556;13.430;2024-03-25T07:22:44;-19392.06;;;6.60;100.00
27294;BME280;14785;52.556;13.430;2024-03-25T07:25:11;-19433.78;;;6.80;100.00
27294;BME280;14785;52.556;13.430;2024-03-25T07:27:36;-19598.09;;;6.61;100.00
27294;BME280;14785;52.556;13.430;2024-03-25T07:30:05;-19590.03;;;6.34;100.00
27294;BME280;14785;52.556;13.430;2024-03-25T07:32:33;-19592.63;;;6.43;100.00
27294;BME280;14785;52.556;13.430;2024-03-25T07:34:59;-19595.22;;;6.51;100.00
27294;BME280;14785;52.556;13.430;2024-03-25T07:37:24;-19593.22;;;6.45;100.00
27294;BME280;14785;52.556;13.430;2024-03-25T07:39:50;-19590.19;;;6.35;100.00
27294;BME280;14785;52.556;13.430;2024-03-25T07:42:15;-19593.38;;;6.45;100.00
27294;BME280;14785;52.556;13.430;2024-03-25T07:44:41;-19593.22;;;6.45;100.00
27294;BME280;14785;52.556;13.430;2024-03-25T07:47:06;-19591.25;;;6.38;100.00
27294;BME280;14785;52.556;13.430;2024-03-25T07:49:32;-19601.75;;;6.73;100.00
27294;BME280;14785;52.556;13.430;2024-03-25T07:52:00;-19591.56;;;6.39;100.00
27294;BME280;14785;52.556;13.430;2024-03-25T07:54:25;-19605.25;;;6.84;100.00
27294;BME280;14785;52.556;13.430;2024-03-25T07:56:53;-19598.25;;;6.61;100.00
27294;BME280;14785;52.556;13.430;2024-03-25T07:59:18;-19595.81;;;6.53;100.00
27294;BME280;14785;52.556;13.430;2024-03-25T08:01:44;-19591.88;;;6.40;100.00
27294;BME280;14785;52.556;13.430;2024-03-25T08:04:09;-19599.91;;;6.67;100.00
27294;BME280;14785;52.556;13.430;2024-03-25T08:06:35;-19599.63;;;6.66;100.00
27294;BME280;14785;52.556;13.430;2024-03-25T08:09:01;-19601.59;;;6.72;100.00
27294;BME280;14785;52.556;13.430;2024-03-25T08:11:30;-19606.75;;;6.89;100.00
27294;BME280;14785;52.556;13.430;2024-03-25T08:13:57;-19598.09;;;6.61;100.00
27294;BME280;14785;52.556;13.430;2024-03-25T08:16:23;-19602.50;;;6.75;100.00
27294;BME280;14785;52.556;13.430;2024-03-25T08:18:48;-19604.03;;;6.80;100.00
27294;BME280;14785;52.556;13.430;2024-03-25T08:21:14;-19608.88;;;6.96;100.00
27294;BME280;14785;52.556;13.430;2024-03-25T08:23:40;-19608.88;;;6.96;100.00
27294;BME280;14785;52.556;13.430;2024-03-25T08:26:06;-19602.19;;;6.74;100.00
27294;BME280;14785;52.556;13.430;2024-03-25T08:28:32;-19604.31;;;6.81;100.00
27294;BME280;14785;52.556;13.430;2024-03-25T08:30:57;-19617.09;;;7.23;100.00
27294;BME280;14785;52.556;13.430;2024-03-25T08:33:24;-19535.44;;;7.13;100.00
27294;BME280;14785;52.556;13.430;2024-03-25T08:35:50;-19468.63;;;7.11;100.00
27294;BME280;14785;52.556;13.430;2024-03-25T08:38:15;-19430.19;;;7.02;100.00
27294;BME280;14785;52.556;13.430;2024-03-25T08:40:41;-19344.19;;;7.22;100.00
27294;BME280;14785;52.556;13.430;2024-03-25T08:43:07;-19205.91;;;7.20;100.00
27294;BME280;14785;52.556;13.430;2024-03-25T08:45:33;-18955.34;;;7.36;100.00
27294;BME280;14785;52.556;13.430;2024-03-25T08:47:59;-19062.81;;;7.20;100.00
27294;BME280;14785;52.556;13.430;2024-03-25T08:50:24;-19081.72;;;7.23;100.00
27294;BME280;14785;52.556;13.430;2024-03-25T08:52:49;-18969.06;;;7.31;100.00
27294;BME280;14785;52.556;13.430;2024-03-25T08:55:15;-18917.41;;;7.29;100.00
27294;BME280;14785;52.556;13.430;2024-03-25T08:57:40;-18768.28;;;7.43;100.00
27294;BME280;14785;52.556;13.430;2024-03-25T09:00:07;-18586.63;;;7.68;100.00
27294;BME280;14785;52.556;13.430;2024-03-25T09:02:38;-18600.00;;;7.79;100.00
27294;BME280;14785;52.556;13.430;2024-03-25T09:05:04;-19146.66;;;7.44;100.00
27294;BME280;14785;52.556;13.430;2024-03-25T09:07:33;-19217.84;;;7.43;100.00
27294;BME280;14785;52.556;13.430;2024-03-25T09:10:00;-19199.97;;;7.43;100.00
27294;BME280;14785;52.556;13.430;2024-03-25T09:12:44;-18829.41;;;7.77;100.00
27294;BME280;14785;52.556;13.430;2024-03-25T09:15:10;-18703.97;;;7.86;100.00
27294;BME280;14785;52.556;13.430;2024-03-25T09:17:36;-19002.56;;;7.75;100.00
27294;BME280;14785;52.556;13.430;2024-03-25T09:20:02;-19127.25;;;7.82;100.00
27294;BME280;14785;52.556;13.430;2024-03-25T09:22:29;-19041.56;;;7.60;100.00
27294;BME280;14785;52.556;13.430;2024-03-25T09:24:56;-18739.91;;;7.68;100.00
27294;BME280;14785;52.556;13.430;2024-03-25T09:27:21;-17976.47;;;7.98;100.00
27294;BME280;14785;52.556;13.430;2024-03-25T09:29:47;-17976.47;;;7.79;100.00
27294;BME280;14785;52.556;13.430;2024-03-25T09:32:12;-17914.28;;;7.39;100.00
27294;BME280;14785;52.556;13.430;2024-03-25T09:34:38;-17499.13;;;7.34;100.00
27294;BME280;14785;52.556;13.430;2024-03-25T09:37:03;-17103.34;;;7.54;100.00
27294;BME280;14785;52.556;13.430;2024-03-25T09:39:30;-17470.09;;;7.21;100.00
27294;BME280;14785;52.556;13.430;2024-03-25T09:41:57;-16615.97;;;7.77;100.00
27294;BME280;14785;52.556;13.430;2024-03-25T09:44:29;-17110.34;;;7.52;100.00
27294;BME280;14785;52.556;13.430;2024-03-25T09:46:58;-16536.47;;;7.66;100.00
27294;BME280;14785;52.556;13.430;2024-03-25T09:49:25;-16458.59;;;7.72;100.00
27294;BME280;14785;52.556;13.430;2024-03-25T09:51:51;-16675.53;;;7.60;100.00
27294;BME280;14785;52.556;13.430;2024-03-25T09:54:18;-16730.22;;;7.64;100.00
27294;BME280;14785;52.556;13.430;2024-03-25T09:56:43;-16956.84;;;7.41;100.00
27294;BME280;14785;52.556;13.430;2024-03-25T09:59:09;-15532.66;;;7.81;100.00
27294;BME280;14785;52.556;13.430;2024-03-25T10:01:35;-15063.00;;;7.86;100.00
27294;BME280;14785;52.556;13.430;2024-03-25T10:04:02;-16185.06;;;7.51;100.00
27294;BME280;14785;52.556;13.430;2024-03-25T10:06:29;-15424.06;;;7.88;100.00
27294;BME280;14785;52.556;13.430;2024-03-25T10:08:54;-15372.34;;;7.96;100.00
27294;BME280;14785;52.556;13.430;2024-03-25T10:11:22;-16377.03;;;8.04;100.00
27294;BME280;14785;52.556;13.430;2024-03-25T10:13:47;-16926.22;;;8.11;100.00
27294;BME280;14785;52.556;13.430;2024-03-25T10:16:13;-17815.53;;;7.99;100.00
27294;BME280;14785;52.556;13.430;2024-03-25T10:18:40;-18037.84;;;8.17;100.00
27294;BME280;14785;52.556;13.430;2024-03-25T10:21:10;-18831.13;;;8.01;100.00
27294;BME280;14785;52.556;13.430;2024-03-25T10:23:35;-18966.22;;;8.09;100.00
27294;BME280;14785;52.556;13.430;2024-03-25T10:26:05;-19441.06;;;7.81;100.00
27294;BME280;14785;52.556;13.430;2024-03-25T10:28:31;-19171.31;;;8.11;100.00
27294;BME280;14785;52.556;13.430;2024-03-25T10:31:04;-18966.81;;;8.11;100.00
27294;BME280;14785;52.556;13.430;2024-03-25T10:33:30;-18537.09;;;8.46;100.00
27294;BME280;14785;52.556;13.430;2024-03-25T10:35:56;-19202.91;;;8.05;100.00
27294;BME280;14785;52.556;13.430;2024-03-25T10:38:24;-19539.59;;;8.45;100.00
27294;BME280;14785;52.556;13.430;2024-03-25T10:40:53;-19649.31;;;8.30;100.00
27294;BME280;14785;52.556;13.430;2024-03-25T10:43:21;-19647.78;;;8.25;100.00
27294;BME280;14785;52.556;13.430;2024-03-25T10:45:55;-19652.97;;;8.42;100.00
27294;BME280;14785;52.556;13.430;2024-03-25T10:50:55;-19648.41;;;8.27;100.00
27294;BME280;14785;52.556;13.430;2024-03-25T10:53:24;-19643.53;;;8.11;100.00
27294;BME280;14785;52.556;13.430;2024-03-25T10:55:53;-19649.47;;;8.30;100.00
27294;BME280;14785;52.556;13.430;2024-03-25T10:58:21;-19663.88;;;8.78;100.00
27294;BME280;14785;52.556;13.430;2024-03-25T11:00:52;-19668.44;;;8.93;100.00
27294;BME280;14785;52.556;13.430;2024-03-25T11:03:22;-19655.53;;;8.50;100.00
27294;BME280;14785;52.556;13.430;2024-03-25T11:05:48;-19661.16;;;8.69;100.00
27294;BME280;14785;52.556;13.430;2024-03-25T11:08:16;-19666.78;;;8.87;100.00
27294;BME280;14785;52.556;13.430;2024-03-25T11:10:47;-19664.81;;;8.81;100.00
27294;BME280;14785;52.556;13.430;2024-03-25T11:13:14;-19663.59;;;8.77;100.00
27294;BME280;14785;52.556;13.430;2024-03-25T11:15:41;-19655.09;;;8.49;100.00
27294;BME280;14785;52.556;13.430;2024-03-25T11:18:14;-19656.44;;;8.53;100.00
27294;BME280;14785;52.556;13.430;2024-03-25T11:20:44;-19663.28;;;8.76;100.00
27294;BME280;14785;52.556;13.430;2024-03-25T11:23:10;-19662.69;;;8.74;100.00
27294;BME280;14785;52.556;13.430;2024-03-25T11:25:37;-19665.72;;;8.84;100.00
27294;BME280;14785;52.556;13.430;2024-03-25T11:28:03;-19663.28;;;8.76;100.00
27294;BME280;14785;52.556;13.430;2024-03-25T11:30:29;-19668.59;;;8.93;100.00
27294;BME280;14785;52.556;13.430;2024-03-25T11:32:57;-19673.59;;;9.10;100.00
27294;BME280;14785;52.556;13.430;2024-03-25T11:35:23;-19672.69;;;9.07;100.00
27294;BME280;14785;52.556;13.430;2024-03-25T11:37:48;-19683.94;;;9.44;100.00
27294;BME280;14785;52.556;13.430;2024-03-25T11:40:15;-19686.97;;;9.54;100.00
27294;BME280;14785;52.556;13.430;2024-03-25T11:42:41;-19681.66;;;9.36;100.00
27294;BME280;14785;52.556;13.430;2024-03-25T11:45:17;-19676.50;;;9.19;100.00
27294;BME280;14785;52.556;13.430;2024-03-25T11:47:43;-19672.38;;;9.06;100.00
27294;BME280;14785;52.556;13.430;2024-03-25T11:50:12;-19681.81;;;9.37;100.00
27294;BME280;14785;52.556;13.430;2024-03-25T11:52:38;-19672.69;;;9.07;100.00
27294;BME280;14785;52.556;13.430;2024-03-25T11:55:04;-19670.28;;;8.99;100.00
27294;BME280;14785;52.556;13.430;2024-03-25T11:57:29;-19676.34;;;9.19;100.00
27294;BME280;14785;52.556;13.430;2024-03-25T11:59:55;-19680.59;;;9.33;100.00
27294;BME280;14785;52.556;13.430;2024-03-25T12:02:20;-19690.31;;;9.65;100.00
27294;BME280;14785;52.556;13.430;2024-03-25T12:04:47;-19680.28;;;9.32;100.00
27294;BME280;14785;52.556;13.430;2024-03-25T12:07:14;-19687.88;;;9.57;100.00
27294;BME280;14785;52.556;13.430;2024-03-25T12:09:40;-19682.41;;;9.39;100.00
27294;BME280;14785;52.556;13.430;2024-03-25T12:12:25;-19682.09;;;9.38;100.00
27294;BME280;14785;52.556;13.430;2024-03-25T12:14:51;-19677.72;;;9.23;100.00
27294;BME280;14785;52.556;13.430;2024-03-25T12:17:18;-19678.78;;;9.27;100.00
27294;BME280;14785;52.556;13.430;2024-03-25T12:20:06;-19670.13;;;8.98;100.00
27294;BME280;14785;52.556;13.430;2024-03-25T12:22:34;-19675.44;;;9.16;100.00
27294;BME280;14785;52.556;13.430;2024-03-25T12:25:02;-19664.03;;;8.78;100.00
27294;BME280;14785;52.556;13.430;2024-03-25T12:27:29;-19680.88;;;9.34;100.00
27294;BME280;14785;52.556;13.430;2024-03-25T12:30:05;-19672.38;;;9.06;100.00
27294;BME280;14785;52.556;13.430;2024-03-25T12:35:11;-19689.09;;;9.61;100.00
27294;BME280;14785;52.556;13.430;2024-03-25T12:37:41;-19706.69;;;10.19;100.00
27294;BME280;14785;52.556;13.430;2024-03-25T12:40:09;-19696.69;;;9.86;100.00
27294;BME280;14785;52.556;13.430;2024-03-25T12:42:36;-19694.56;;;9.79;100.00
27294;BME280;14785;52.556;13.430;2024-03-25T12:45:02;-19703.06;;;10.07;100.00
27294;BME280;14785;52.556;13.430;2024-03-25T12:47:28;-19688.47;;;9.59;100.00
27294;BME280;14785;52.556;13.430;2024-03-25T12:49:53;-19680.88;;;9.34;100.00
27294;BME280;14785;52.556;13.430;2024-03-25T12:52:19;-19681.19;;;9.35;100.00
27294;BME280;14785;52.556;13.430;2024-03-25T12:54:44;-19703.66;;;10.09;100.00